NOW335D EGSC-ENGM
Flight info
| Callsign | NOW335D |
|---|---|
| Flight time | N/A |
| Altitude | 27000 |
| Route | UMBAG P155 BANEM M604 GIVPO DCT TOPPA DCT SUTEB DCT OKMAM P850 DANKO M604 SVA M609 RIPAM |
| Aircraft | C30J/M-SDFGHIRTY/B1L |
Departure
| Time | N/A |
|---|---|
| Airport | Cambridge City Airport (EGSC) |
Arrival
| Time | 2026-05-05 16:45 |
|---|---|
| Airport | Oslo-Gardermoen International Airport (ENGM) |
| Time | Latitude | Longitude | Altitude | Speed | Heading |
|---|---|---|---|---|---|
| 2026-05-05 15:39 | 55.20707 | 5.54304 | 26998 ft | 347 kts | 13° |
| 2026-05-05 15:39 | 55.22993 | 5.55666 | 26991 ft | 347 kts | 13° |
| 2026-05-05 15:39 | 55.25290 | 5.57035 | 26990 ft | 347 kts | 13° |
| 2026-05-05 15:39 | 55.27547 | 5.58382 | 26991 ft | 347 kts | 13° |
| 2026-05-05 15:40 | 55.29864 | 5.59768 | 26988 ft | 347 kts | 13° |
| 2026-05-05 15:40 | 55.32150 | 5.61136 | 26988 ft | 347 kts | 13° |
| 2026-05-05 15:40 | 55.34431 | 5.62504 | 26993 ft | 347 kts | 13° |
| 2026-05-05 15:40 | 55.36694 | 5.63862 | 26999 ft | 347 kts | 13° |
| 2026-05-05 15:41 | 55.38982 | 5.65238 | 27003 ft | 347 kts | 13° |
| 2026-05-05 15:41 | 55.41292 | 5.66628 | 26997 ft | 348 kts | 13° |
| 2026-05-05 15:41 | 55.43592 | 5.68014 | 26998 ft | 348 kts | 13° |
| 2026-05-05 15:41 | 55.45849 | 5.69377 | 26992 ft | 347 kts | 13° |
| 2026-05-05 15:42 | 55.48158 | 5.70773 | 26992 ft | 345 kts | 13° |
| 2026-05-05 15:42 | 55.50387 | 5.72123 | 26989 ft | 343 kts | 13° |
| 2026-05-05 15:42 | 55.52670 | 5.73506 | 27002 ft | 342 kts | 13° |
| 2026-05-05 15:42 | 55.54882 | 5.74848 | 26995 ft | 341 kts | 13° |
| 2026-05-05 15:43 | 55.57129 | 5.76212 | 27004 ft | 341 kts | 13° |
| 2026-05-05 15:43 | 55.59383 | 5.77583 | 27002 ft | 341 kts | 13° |
| 2026-05-05 15:43 | 55.61621 | 5.78946 | 26992 ft | 341 kts | 13° |
| 2026-05-05 15:43 | 55.63868 | 5.80317 | 27001 ft | 342 kts | 13° |
| 2026-05-05 15:44 | 55.66125 | 5.81695 | 27033 ft | 342 kts | 13° |
| 2026-05-05 15:44 | 55.68369 | 5.83067 | 26998 ft | 343 kts | 13° |
| 2026-05-05 15:44 | 55.70627 | 5.84449 | 26996 ft | 342 kts | 13° |
| 2026-05-05 15:44 | 55.72881 | 5.85832 | 26999 ft | 342 kts | 13° |
| 2026-05-05 15:45 | 55.75125 | 5.87210 | 26999 ft | 342 kts | 13° |
| 2026-05-05 15:45 | 55.77377 | 5.88594 | 27001 ft | 342 kts | 13° |
| 2026-05-05 15:45 | 55.79620 | 5.89973 | 27001 ft | 341 kts | 12° |
| 2026-05-05 15:45 | 55.81860 | 5.91348 | 27001 ft | 341 kts | 13° |
| 2026-05-05 15:46 | 55.84115 | 5.92740 | 26995 ft | 341 kts | 13° |
| 2026-05-05 15:46 | 55.86327 | 5.94109 | 27000 ft | 341 kts | 13° |
| 2026-05-05 15:46 | 55.88573 | 5.95499 | 26999 ft | 341 kts | 13° |
| 2026-05-05 15:46 | 55.90815 | 5.96888 | 27001 ft | 341 kts | 13° |
| 2026-05-05 15:47 | 55.93085 | 5.98297 | 27002 ft | 341 kts | 13° |
| 2026-05-05 15:47 | 55.94573 | 5.99221 | 27002 ft | 341 kts | 13° |
| 2026-05-05 15:47 | 55.97536 | 6.01063 | 27005 ft | 341 kts | 13° |
| 2026-05-05 15:47 | 55.99773 | 6.02456 | 27006 ft | 341 kts | 13° |
| 2026-05-05 15:48 | 56.02020 | 6.03857 | 27006 ft | 341 kts | 13° |
| 2026-05-05 15:48 | 56.04266 | 6.05259 | 27003 ft | 341 kts | 13° |
| 2026-05-05 15:48 | 56.06504 | 6.06657 | 27005 ft | 341 kts | 13° |
| 2026-05-05 15:48 | 56.08743 | 6.08059 | 27005 ft | 341 kts | 13° |
| 2026-05-05 15:49 | 56.10987 | 6.09465 | 27004 ft | 341 kts | 13° |
| 2026-05-05 15:49 | 56.13213 | 6.10861 | 27002 ft | 341 kts | 13° |
| 2026-05-05 15:49 | 56.15458 | 6.12271 | 27020 ft | 341 kts | 13° |
| 2026-05-05 15:49 | 56.17699 | 6.13681 | 27011 ft | 341 kts | 13° |
| 2026-05-05 15:50 | 56.19918 | 6.15079 | 27003 ft | 341 kts | 13° |
| 2026-05-05 15:50 | 56.22155 | 6.16490 | 27000 ft | 341 kts | 13° |
| 2026-05-05 15:50 | 56.24389 | 6.17900 | 27006 ft | 341 kts | 13° |
| 2026-05-05 15:50 | 56.26628 | 6.19316 | 27013 ft | 340 kts | 13° |
| 2026-05-05 15:51 | 56.28866 | 6.20732 | 27010 ft | 340 kts | 13° |
| 2026-05-05 15:51 | 56.31093 | 6.22143 | 27017 ft | 340 kts | 13° |
| 2026-05-05 15:51 | 56.33333 | 6.23565 | 27012 ft | 340 kts | 13° |
| 2026-05-05 15:51 | 56.35557 | 6.24978 | 27019 ft | 340 kts | 13° |
| 2026-05-05 15:52 | 56.37788 | 6.26397 | 27015 ft | 340 kts | 13° |
| 2026-05-05 15:52 | 56.40015 | 6.27816 | 27012 ft | 340 kts | 13° |
| 2026-05-05 15:52 | 56.42180 | 6.29197 | 27045 ft | 340 kts | 13° |
| 2026-05-05 15:53 | 56.42819 | 6.29605 | 27034 ft | 340 kts | 13° |
| 2026-05-05 15:53 | 56.45062 | 6.31038 | 27010 ft | 340 kts | 13° |
| 2026-05-05 15:53 | 56.47288 | 6.32463 | 27013 ft | 340 kts | 13° |
| 2026-05-05 15:54 | 56.49518 | 6.33891 | 27016 ft | 340 kts | 13° |
| 2026-05-05 15:54 | 56.51743 | 6.35318 | 27013 ft | 340 kts | 13° |
| 2026-05-05 15:54 | 56.53977 | 6.36752 | 27018 ft | 340 kts | 13° |
| 2026-05-05 15:54 | 56.56202 | 6.38183 | 27008 ft | 340 kts | 13° |
| 2026-05-05 15:55 | 56.58428 | 6.39616 | 27015 ft | 340 kts | 13° |
| 2026-05-05 15:55 | 56.60653 | 6.41050 | 27014 ft | 340 kts | 13° |
| 2026-05-05 15:55 | 56.62881 | 6.42488 | 27018 ft | 340 kts | 13° |
| 2026-05-05 15:55 | 56.65109 | 6.43928 | 27016 ft | 340 kts | 13° |
| 2026-05-05 15:56 | 56.67339 | 6.45370 | 27018 ft | 340 kts | 13° |
| 2026-05-05 15:56 | 56.69571 | 6.46817 | 27033 ft | 340 kts | 12° |
| 2026-05-05 15:56 | 56.71804 | 6.48265 | 27018 ft | 341 kts | 12° |
| 2026-05-05 15:56 | 56.73279 | 6.49222 | 27015 ft | 341 kts | 12° |
| 2026-05-05 15:57 | 56.76237 | 6.51146 | 27019 ft | 340 kts | 12° |
| 2026-05-05 15:57 | 56.78463 | 6.52595 | 27020 ft | 340 kts | 12° |
| 2026-05-05 15:57 | 56.80699 | 6.54053 | 27018 ft | 340 kts | 12° |
| 2026-05-05 15:57 | 56.82925 | 6.55506 | 27020 ft | 340 kts | 12° |
| 2026-05-05 15:58 | 56.85153 | 6.56962 | 27021 ft | 340 kts | 12° |
| 2026-05-05 15:58 | 56.86658 | 6.57948 | 27019 ft | 340 kts | 12° |
| 2026-05-05 15:58 | 56.88879 | 6.59487 | 27020 ft | 342 kts | 17° |
| 2026-05-05 15:58 | 56.91033 | 6.61378 | 27020 ft | 345 kts | 20° |
| 2026-05-05 15:59 | 56.93165 | 6.63393 | 27020 ft | 345 kts | 21° |
| 2026-05-05 15:59 | 56.95276 | 6.65393 | 27030 ft | 346 kts | 20° |
| 2026-05-05 15:59 | 56.97414 | 6.67420 | 27016 ft | 347 kts | 20° |
| 2026-05-05 15:59 | 56.99557 | 6.69458 | 27013 ft | 347 kts | 21° |
| 2026-05-05 16:00 | 57.01660 | 6.71649 | 27017 ft | 349 kts | 23° |
| 2026-05-05 16:00 | 57.03752 | 6.73914 | 27018 ft | 349 kts | 24° |
| 2026-05-05 16:00 | 57.05841 | 6.76174 | 27019 ft | 349 kts | 23° |
| 2026-05-05 16:00 | 57.07933 | 6.78437 | 27019 ft | 349 kts | 23° |
| 2026-05-05 16:01 | 57.10028 | 6.80703 | 27017 ft | 349 kts | 24° |
| 2026-05-05 16:01 | 57.12125 | 6.82974 | 27014 ft | 349 kts | 24° |
| 2026-05-05 16:01 | 57.14213 | 6.85239 | 27013 ft | 349 kts | 24° |
| 2026-05-05 16:01 | 57.16302 | 6.87506 | 27014 ft | 349 kts | 24° |
| 2026-05-05 16:02 | 57.18393 | 6.89780 | 27011 ft | 349 kts | 24° |
| 2026-05-05 16:02 | 57.20483 | 6.92054 | 27033 ft | 350 kts | 22° |
| 2026-05-05 16:02 | 57.22587 | 6.94346 | 27004 ft | 351 kts | 22° |
| 2026-05-05 16:02 | 57.24689 | 6.96641 | 27006 ft | 351 kts | 22° |
| 2026-05-05 16:03 | 57.26791 | 6.98941 | 27009 ft | 351 kts | 22° |
| 2026-05-05 16:03 | 57.28893 | 7.01242 | 27008 ft | 351 kts | 22° |
| 2026-05-05 16:03 | 57.30993 | 7.03544 | 27006 ft | 351 kts | 22° |
| 2026-05-05 16:03 | 57.33095 | 7.05853 | 27005 ft | 352 kts | 23° |
| 2026-05-05 16:04 | 57.35204 | 7.08172 | 27005 ft | 352 kts | 23° |
| 2026-05-05 16:04 | 57.37303 | 7.10482 | 27005 ft | 352 kts | 23° |
| 2026-05-05 16:04 | 57.39410 | 7.12805 | 27006 ft | 352 kts | 23° |
| 2026-05-05 16:04 | 57.41512 | 7.15127 | 27003 ft | 352 kts | 23° |
| 2026-05-05 16:05 | 57.43589 | 7.17423 | 27003 ft | 352 kts | 23° |
| 2026-05-05 16:05 | 57.45721 | 7.19784 | 27039 ft | 352 kts | 22° |
| 2026-05-05 16:05 | 57.47828 | 7.22119 | 26986 ft | 354 kts | 22° |
| 2026-05-05 16:05 | 57.49914 | 7.24453 | 26999 ft | 354 kts | 22° |
| 2026-05-05 16:06 | 57.52022 | 7.26826 | 26996 ft | 354 kts | 22° |
| 2026-05-05 16:06 | 57.54129 | 7.29186 | 26995 ft | 354 kts | 22° |
| 2026-05-05 16:06 | 57.56244 | 7.31548 | 26998 ft | 354 kts | 22° |
| 2026-05-05 16:06 | 57.58357 | 7.33909 | 26986 ft | 354 kts | 22° |
| 2026-05-05 16:07 | 57.60476 | 7.36278 | 26983 ft | 354 kts | 22° |
| 2026-05-05 16:07 | 57.62593 | 7.38647 | 26992 ft | 354 kts | 22° |
| 2026-05-05 16:07 | 57.64706 | 7.41014 | 26990 ft | 354 kts | 22° |
| 2026-05-05 16:07 | 57.66818 | 7.43384 | 26986 ft | 354 kts | 22° |
| 2026-05-05 16:08 | 57.68930 | 7.45758 | 26983 ft | 354 kts | 22° |
| 2026-05-05 16:08 | 57.71044 | 7.48136 | 27024 ft | 355 kts | 22° |
| 2026-05-05 16:08 | 57.73152 | 7.50510 | 26985 ft | 356 kts | 22° |
| 2026-05-05 16:08 | 57.75270 | 7.52901 | 26977 ft | 356 kts | 22° |
| 2026-05-05 16:09 | 57.77368 | 7.55272 | 26974 ft | 356 kts | 22° |
| 2026-05-05 16:09 | 57.79485 | 7.57669 | 26973 ft | 355 kts | 22° |
| 2026-05-05 16:09 | 57.81598 | 7.60063 | 26967 ft | 355 kts | 22° |
| 2026-05-05 16:09 | 57.83710 | 7.62461 | 26967 ft | 355 kts | 22° |
| 2026-05-05 16:10 | 57.85830 | 7.64870 | 26967 ft | 355 kts | 22° |
| 2026-05-05 16:10 | 57.87938 | 7.67270 | 26967 ft | 355 kts | 22° |
| 2026-05-05 16:10 | 57.90052 | 7.69679 | 26967 ft | 355 kts | 22° |
| 2026-05-05 16:10 | 57.92166 | 7.72093 | 26958 ft | 355 kts | 22° |
| 2026-05-05 16:11 | 57.94271 | 7.74499 | 26955 ft | 355 kts | 22° |
| 2026-05-05 16:11 | 58.00611 | 7.81768 | 26940 ft | 356 kts | 22° |
| 2026-05-05 16:12 | 58.02724 | 7.84198 | 26936 ft | 356 kts | 22° |
| 2026-05-05 16:12 | 58.06939 | 7.89055 | 26931 ft | 355 kts | 22° |
| 2026-05-05 16:13 | 58.12993 | 7.97464 | 26922 ft | 361 kts | 29° |
| 2026-05-05 16:13 | 58.14981 | 8.00347 | 26924 ft | 360 kts | 29° |
| 2026-05-05 16:13 | 58.16974 | 8.03239 | 26925 ft | 361 kts | 28° |
| 2026-05-05 16:14 | 58.20957 | 8.09029 | 26925 ft | 361 kts | 28° |
| 2026-05-05 16:14 | 58.24920 | 8.14804 | 26928 ft | 363 kts | 28° |
| 2026-05-05 16:15 | 58.28923 | 8.20659 | 26925 ft | 364 kts | 28° |
| 2026-05-05 16:15 | 58.32922 | 8.26525 | 26934 ft | 362 kts | 28° |
| 2026-05-05 16:16 | 58.36916 | 8.32401 | 26940 ft | 363 kts | 28° |
| 2026-05-05 16:16 | 58.40904 | 8.38301 | 26939 ft | 363 kts | 29° |
| 2026-05-05 16:17 | 58.44888 | 8.44204 | 26938 ft | 362 kts | 28° |
| 2026-05-05 16:17 | 58.46886 | 8.47133 | 26936 ft | 362 kts | 28° |
| 2026-05-05 16:18 | 58.50878 | 8.53049 | 26933 ft | 363 kts | 28° |
| 2026-05-05 16:18 | 58.52859 | 8.56000 | 26936 ft | 362 kts | 28° |
| 2026-05-05 16:18 | 58.56837 | 8.61944 | 26932 ft | 363 kts | 29° |
| 2026-05-05 16:19 | 58.58827 | 8.64924 | 26931 ft | 363 kts | 29° |
| 2026-05-05 16:19 | 58.60824 | 8.67919 | 26935 ft | 364 kts | 29° |
| 2026-05-05 16:19 | 58.64809 | 8.73913 | 26928 ft | 364 kts | 29° |
| 2026-05-05 16:20 | 58.68766 | 8.79973 | 26926 ft | 364 kts | 29° |
| 2026-05-05 16:20 | 58.72709 | 8.85957 | 26963 ft | 364 kts | 29° |
| 2026-05-05 16:21 | 58.76707 | 8.92017 | 26929 ft | 366 kts | 28° |
| 2026-05-05 16:22 | 58.82707 | 9.01145 | 26929 ft | 366 kts | 28° |
| 2026-05-05 16:22 | 58.86702 | 9.07262 | 26933 ft | 366 kts | 29° |
| 2026-05-05 16:23 | 58.90695 | 9.13403 | 26931 ft | 367 kts | 29° |
| 2026-05-05 16:23 | 58.92687 | 9.16463 | 26933 ft | 367 kts | 29° |
| 2026-05-05 16:23 | 58.96687 | 9.22618 | 26925 ft | 367 kts | 29° |
| 2026-05-05 16:24 | 58.98687 | 9.25701 | 26929 ft | 367 kts | 29° |
| 2026-05-05 16:24 | 59.00681 | 9.28779 | 26958 ft | 369 kts | 28° |
| 2026-05-05 16:24 | 59.04697 | 9.34996 | 26923 ft | 369 kts | 28° |
| 2026-05-05 16:25 | 59.06706 | 9.38115 | 26923 ft | 369 kts | 28° |
| 2026-05-05 16:25 | 59.10713 | 9.44348 | 26925 ft | 368 kts | 28° |
| 2026-05-05 16:25 | 59.12711 | 9.47464 | 26930 ft | 368 kts | 28° |
| 2026-05-05 16:26 | 59.16708 | 9.53711 | 26926 ft | 368 kts | 28° |
| 2026-05-05 16:26 | 59.20853 | 9.59657 | 26338 ft | 377 kts | 22° |
| 2026-05-05 16:27 | 59.23059 | 9.62505 | 25644 ft | 386 kts | 24° |
| 2026-05-05 16:27 | 59.25245 | 9.65694 | 25029 ft | 398 kts | 28° |
| 2026-05-05 16:27 | 59.27384 | 9.69201 | 24309 ft | 403 kts | 31° |
| 2026-05-05 16:27 | 59.29485 | 9.72766 | 23644 ft | 397 kts | 31° |
| 2026-05-05 16:28 | 59.31547 | 9.76286 | 22954 ft | 400 kts | 31° |
| 2026-05-05 16:28 | 59.33644 | 9.79885 | 22199 ft | 401 kts | 32° |
| 2026-05-05 16:28 | 59.35724 | 9.83473 | 21500 ft | 396 kts | 32° |
| 2026-05-05 16:28 | 59.37773 | 9.87017 | 20816 ft | 389 kts | 32° |
| 2026-05-05 16:29 | 59.39784 | 9.90498 | 20157 ft | 382 kts | 32° |
| 2026-05-05 16:29 | 59.41763 | 9.93925 | 19517 ft | 377 kts | 32° |
| 2026-05-05 16:29 | 59.43716 | 9.97312 | 18805 ft | 373 kts | 32° |
| 2026-05-05 16:29 | 59.45644 | 10.00665 | 18086 ft | 367 kts | 32° |
| 2026-05-05 16:30 | 59.47535 | 10.03959 | 17277 ft | 359 kts | 33° |
| 2026-05-05 16:30 | 59.49375 | 10.07172 | 16511 ft | 349 kts | 33° |
| 2026-05-05 16:30 | 59.51160 | 10.10290 | 15789 ft | 337 kts | 34° |
| 2026-05-05 16:30 | 59.52880 | 10.13300 | 15065 ft | 327 kts | 35° |
| 2026-05-05 16:31 | 59.54549 | 10.16225 | 14288 ft | 314 kts | 35° |
| 2026-05-05 16:31 | 59.56152 | 10.19036 | 13502 ft | 304 kts | 36° |
| 2026-05-05 16:31 | 59.57708 | 10.21768 | 12663 ft | 295 kts | 36° |
| 2026-05-05 16:31 | 59.59221 | 10.24428 | 11848 ft | 287 kts | 37° |
| 2026-05-05 16:32 | 59.60693 | 10.27018 | 11108 ft | 279 kts | 37° |
| 2026-05-05 16:32 | 59.62109 | 10.29516 | 10471 ft | 268 kts | 38° |
| 2026-05-05 16:32 | 59.63469 | 10.31918 | 9867 ft | 259 kts | 38° |
| 2026-05-05 16:32 | 59.64797 | 10.34266 | 9221 ft | 253 kts | 38° |
| 2026-05-05 16:33 | 59.66090 | 10.36552 | 8888 ft | 247 kts | 38° |
| 2026-05-05 16:33 | 59.67372 | 10.38820 | 8885 ft | 249 kts | 38° |
| 2026-05-05 16:33 | 59.68678 | 10.41129 | 8896 ft | 253 kts | 38° |
| 2026-05-05 16:33 | 59.70002 | 10.43477 | 8640 ft | 257 kts | 38° |
| 2026-05-05 16:34 | 59.71316 | 10.45814 | 8154 ft | 251 kts | 38° |
| 2026-05-05 16:34 | 59.72604 | 10.48111 | 7682 ft | 247 kts | 38° |
| 2026-05-05 16:34 | 59.73876 | 10.50376 | 7213 ft | 245 kts | 38° |
| 2026-05-05 16:34 | 59.75135 | 10.52622 | 6771 ft | 243 kts | 38° |
| 2026-05-05 16:35 | 59.76384 | 10.54852 | 6339 ft | 241 kts | 38° |
| 2026-05-05 16:35 | 59.77626 | 10.57072 | 5877 ft | 239 kts | 38° |
| 2026-05-05 16:35 | 59.78857 | 10.59275 | 5413 ft | 238 kts | 38° |
| 2026-05-05 16:35 | 59.80088 | 10.61479 | 4972 ft | 237 kts | 38° |
| 2026-05-05 16:36 | 59.81311 | 10.63665 | 4508 ft | 235 kts | 38° |
| 2026-05-05 16:36 | 59.82524 | 10.65847 | 4084 ft | 235 kts | 37° |
| 2026-05-05 16:36 | 59.83718 | 10.67996 | 3992 ft | 231 kts | 38° |
| 2026-05-05 16:36 | 59.84919 | 10.70153 | 3986 ft | 234 kts | 38° |
| 2026-05-05 16:37 | 59.86131 | 10.72332 | 3981 ft | 235 kts | 38° |
| 2026-05-05 16:37 | 59.87344 | 10.74520 | 3985 ft | 235 kts | 37° |
| 2026-05-05 16:37 | 59.88555 | 10.76703 | 3984 ft | 235 kts | 38° |
| 2026-05-05 16:37 | 59.89781 | 10.78866 | 3989 ft | 236 kts | 37° |
| 2026-05-05 16:38 | 59.91010 | 10.81010 | 3980 ft | 234 kts | 37° |
| 2026-05-05 16:38 | 59.92235 | 10.83171 | 3986 ft | 236 kts | 37° |
| 2026-05-05 16:38 | 59.93434 | 10.85301 | 3984 ft | 221 kts | 37° |
| 2026-05-05 16:38 | 59.94554 | 10.87287 | 3981 ft | 213 kts | 37° |
| 2026-05-05 16:39 | 59.95649 | 10.89237 | 3989 ft | 214 kts | 37° |
| 2026-05-05 16:39 | 59.96754 | 10.91223 | 3988 ft | 213 kts | 37° |
| 2026-05-05 16:39 | 59.97864 | 10.93205 | 3994 ft | 214 kts | 37° |
| 2026-05-05 16:39 | 59.98978 | 10.95175 | 3984 ft | 214 kts | 35° |
| 2026-05-05 16:40 | 60.00223 | 10.96676 | 3970 ft | 208 kts | 15° |
| 2026-05-05 16:40 | 60.01607 | 10.97509 | 3689 ft | 205 kts | 13° |
| 2026-05-05 16:40 | 60.02913 | 10.98333 | 3486 ft | 186 kts | 13° |
| 2026-05-05 16:40 | 60.04120 | 10.99086 | 3472 ft | 180 kts | 12° |
| 2026-05-05 16:41 | 60.05322 | 10.99824 | 3509 ft | 183 kts | 12° |
| 2026-05-05 16:41 | 60.06550 | 11.00555 | 3302 ft | 184 kts | 11° |
| 2026-05-05 16:41 | 60.07719 | 11.01234 | 3071 ft | 166 kts | 11° |
| 2026-05-05 16:41 | 60.08800 | 11.01843 | 2813 ft | 159 kts | 10° |
| 2026-05-05 16:42 | 60.09864 | 11.02435 | 2576 ft | 158 kts | 9° |
| 2026-05-05 16:42 | 60.10911 | 11.03021 | 2338 ft | 155 kts | 10° |
| 2026-05-05 16:42 | 60.11603 | 11.03407 | 2205 ft | 155 kts | 10° |
| 2026-05-05 16:42 | 60.12653 | 11.04001 | 1976 ft | 160 kts | 11° |
| 2026-05-05 16:43 | 60.13642 | 11.04577 | 1812 ft | 133 kts | 9° |
| 2026-05-05 16:43 | 60.14517 | 11.05079 | 1617 ft | 128 kts | 9° |
| 2026-05-05 16:43 | 60.15360 | 11.05566 | 1379 ft | 128 kts | 10° |
| 2026-05-05 16:43 | 60.16236 | 11.06076 | 1243 ft | 133 kts | 11° |
| 2026-05-05 16:44 | 60.17131 | 11.06605 | 1023 ft | 134 kts | 12° |
| 2026-05-05 16:44 | 60.18029 | 11.07114 | 825 ft | 130 kts | 13° |
| 2026-05-05 16:44 | 60.18882 | 11.07598 | 671 ft | 122 kts | 16° |
| 2026-05-05 16:44 | 60.19547 | 11.07968 | 671 ft | 68 kts | 15° |
| 2026-05-05 16:45 | 60.19750 | 11.08079 | 671 ft | 23 kts | 22° |
| 2026-05-05 16:45 | 60.19917 | 11.08184 | 673 ft | 31 kts | 24° |
| 2026-05-05 16:45 | 60.20128 | 11.08341 | 674 ft | 30 kts | 26° |
| 2026-05-05 16:45 | 60.20242 | 11.08524 | 675 ft | 19 kts | 65° |
| 2026-05-05 16:46 | 60.20236 | 11.08706 | 677 ft | 16 kts | 106° |
| 2026-05-05 16:46 | 60.20239 | 11.08929 | 679 ft | 17 kts | 34° |
| 2026-05-05 16:46 | 60.20364 | 11.09014 | 680 ft | 19 kts | 16° |
| 2026-05-05 16:46 | 60.20495 | 11.09088 | 680 ft | 19 kts | 15° |
| 2026-05-05 16:47 | 60.20621 | 11.09160 | 680 ft | 18 kts | 16° |
| 2026-05-05 16:47 | 60.20738 | 11.09226 | 681 ft | 13 kts | 14° |
| 2026-05-05 16:47 | 60.20782 | 11.09313 | 679 ft | 11 kts | 84° |
| 2026-05-05 16:47 | 60.20773 | 11.09449 | 677 ft | 7 kts | 116° |
| 2026-05-05 16:48 | 60.20747 | 11.09556 | 680 ft | 9 kts | 111° |
| 2026-05-05 16:48 | 60.20749 | 11.09634 | 679 ft | 5 kts | 48° |
| 2026-05-05 16:48 | 60.20789 | 11.09663 | 683 ft | 5 kts | 16° |
| 2026-05-05 16:48 | 60.20812 | 11.09676 | 681 ft | 0 kts | 16° |